sensor_id;sensor_type;location;lat;lon;timestamp;P1;durP1;ratioP1;P2;durP2;ratioP2
28353;SDS011;15603;50.878;8.036;2024-01-16T00:02:07;15.32;;;5.03;;
28353;SDS011;15603;50.878;8.036;2024-01-16T00:04:37;12.30;;;4.32;;
28353;SDS011;15603;50.878;8.036;2024-01-16T00:07:04;11.85;;;3.53;;
28353;SDS011;15603;50.878;8.036;2024-01-16T00:09:35;7.80;;;3.42;;
28353;SDS011;15603;50.878;8.036;2024-01-16T00:12:02;6.13;;;3.50;;
28353;SDS011;15603;50.878;8.036;2024-01-16T00:14:31;8.98;;;3.97;;
28353;SDS011;15603;50.878;8.036;2024-01-16T00:17:02;8.43;;;3.93;;
28353;SDS011;15603;50.878;8.036;2024-01-16T00:19:30;7.63;;;3.90;;
28353;SDS011;15603;50.878;8.036;2024-01-16T00:21:57;16.52;;;4.85;;
28353;SDS011;15603;50.878;8.036;2024-01-16T00:24:24;15.20;;;5.15;;
28353;SDS011;15603;50.878;8.036;2024-01-16T00:26:51;8.10;;;4.28;;
28353;SDS011;15603;50.878;8.036;2024-01-16T00:29:19;5.70;;;3.78;;
28353;SDS011;15603;50.878;8.036;2024-01-16T00:31:46;9.68;;;4.75;;
28353;SDS011;15603;50.878;8.036;2024-01-16T00:34:13;10.93;;;3.72;;
28353;SDS011;15603;50.878;8.036;2024-01-16T00:36:40;7.05;;;4.03;;
28353;SDS011;15603;50.878;8.036;2024-01-16T00:39:08;10.63;;;3.70;;
28353;SDS011;15603;50.878;8.036;2024-01-16T00:41:35;12.13;;;4.60;;
28353;SDS011;15603;50.878;8.036;2024-01-16T00:44:02;20.15;;;4.50;;
28353;SDS011;15603;50.878;8.036;2024-01-16T00:46:30;9.43;;;4.05;;
28353;SDS011;15603;50.878;8.036;2024-01-16T00:48:57;10.88;;;3.60;;
28353;SDS011;15603;50.878;8.036;2024-01-16T00:51:24;9.27;;;4.13;;
28353;SDS011;15603;50.878;8.036;2024-01-16T00:53:52;7.25;;;4.75;;
28353;SDS011;15603;50.878;8.036;2024-01-16T00:56:19;13.27;;;4.50;;
28353;SDS011;15603;50.878;8.036;2024-01-16T00:58:46;13.68;;;3.92;;
28353;SDS011;15603;50.878;8.036;2024-01-16T01:01:13;6.90;;;3.70;;
28353;SDS011;15603;50.878;8.036;2024-01-16T01:03:40;8.05;;;3.97;;
28353;SDS011;15603;50.878;8.036;2024-01-16T01:06:07;8.10;;;4.18;;
28353;SDS011;15603;50.878;8.036;2024-01-16T01:08:35;13.15;;;4.38;;
28353;SDS011;15603;50.878;8.036;2024-01-16T01:11:02;8.07;;;4.13;;
28353;SDS011;15603;50.878;8.036;2024-01-16T01:13:29;8.88;;;4.28;;
28353;SDS011;15603;50.878;8.036;2024-01-16T01:15:57;10.10;;;3.47;;
28353;SDS011;15603;50.878;8.036;2024-01-16T01:18:24;7.93;;;3.92;;
28353;SDS011;15603;50.878;8.036;2024-01-16T01:20:51;13.40;;;4.93;;
28353;SDS011;15603;50.878;8.036;2024-01-16T01:23:18;8.68;;;3.80;;
28353;SDS011;15603;50.878;8.036;2024-01-16T01:25:45;10.65;;;3.70;;
28353;SDS011;15603;50.878;8.036;2024-01-16T01:28:12;15.48;;;4.03;;
28353;SDS011;15603;50.878;8.036;2024-01-16T01:30:40;12.52;;;4.05;;
28353;SDS011;15603;50.878;8.036;2024-01-16T01:33:07;18.40;;;4.05;;
28353;SDS011;15603;50.878;8.036;2024-01-16T01:35:34;8.65;;;3.45;;
28353;SDS011;15603;50.878;8.036;2024-01-16T01:38:01;9.48;;;3.97;;
28353;SDS011;15603;50.878;8.036;2024-01-16T01:40:28;9.02;;;4.25;;
28353;SDS011;15603;50.878;8.036;2024-01-16T01:42:55;12.32;;;4.60;;
28353;SDS011;15603;50.878;8.036;2024-01-16T01:45:22;8.77;;;4.18;;
28353;SDS011;15603;50.878;8.036;2024-01-16T01:47:50;12.48;;;4.30;;
28353;SDS011;15603;50.878;8.036;2024-01-16T01:50:17;11.90;;;4.53;;
28353;SDS011;15603;50.878;8.036;2024-01-16T01:52:45;7.82;;;4.05;;
28353;SDS011;15603;50.878;8.036;2024-01-16T01:55:13;12.07;;;4.03;;
28353;SDS011;15603;50.878;8.036;2024-01-16T01:57:40;6.43;;;3.75;;
28353;SDS011;15603;50.878;8.036;2024-01-16T02:00:10;18.10;;;4.07;;
28353;SDS011;15603;50.878;8.036;2024-01-16T02:02:41;19.42;;;5.65;;
28353;SDS011;15603;50.878;8.036;2024-01-16T02:05:08;11.68;;;4.35;;
28353;SDS011;15603;50.878;8.036;2024-01-16T02:07:36;9.77;;;4.50;;
28353;SDS011;15603;50.878;8.036;2024-01-16T02:10:05;11.85;;;4.43;;
28353;SDS011;15603;50.878;8.036;2024-01-16T02:12:33;5.72;;;3.63;;
28353;SDS011;15603;50.878;8.036;2024-01-16T02:15:00;12.82;;;4.30;;
28353;SDS011;15603;50.878;8.036;2024-01-16T02:17:27;10.35;;;4.15;;
28353;SDS011;15603;50.878;8.036;2024-01-16T02:19:54;15.77;;;4.57;;
28353;SDS011;15603;50.878;8.036;2024-01-16T02:22:21;14.02;;;5.80;;
28353;SDS011;15603;50.878;8.036;2024-01-16T02:24:55;15.05;;;4.70;;
28353;SDS011;15603;50.878;8.036;2024-01-16T02:27:22;11.32;;;4.80;;
28353;SDS011;15603;50.878;8.036;2024-01-16T02:29:49;19.73;;;5.07;;
28353;SDS011;15603;50.878;8.036;2024-01-16T02:32:17;11.45;;;5.30;;
28353;SDS011;15603;50.878;8.036;2024-01-16T02:34:44;10.40;;;4.68;;
28353;SDS011;15603;50.878;8.036;2024-01-16T02:37:11;12.35;;;5.25;;
28353;SDS011;15603;50.878;8.036;2024-01-16T02:39:38;16.55;;;5.13;;
28353;SDS011;15603;50.878;8.036;2024-01-16T02:42:05;12.85;;;4.93;;
28353;SDS011;15603;50.878;8.036;2024-01-16T02:44:33;19.20;;;5.10;;
28353;SDS011;15603;50.878;8.036;2024-01-16T02:47:00;19.38;;;5.22;;
28353;SDS011;15603;50.878;8.036;2024-01-16T02:49:27;13.18;;;4.63;;
28353;SDS011;15603;50.878;8.036;2024-01-16T02:51:55;12.50;;;6.15;;
28353;SDS011;15603;50.878;8.036;2024-01-16T02:54:22;10.88;;;4.80;;
28353;SDS011;15603;50.878;8.036;2024-01-16T02:56:49;11.10;;;5.65;;
28353;SDS011;15603;50.878;8.036;2024-01-16T02:59:16;16.15;;;6.25;;
28353;SDS011;15603;50.878;8.036;2024-01-16T03:01:44;13.48;;;5.82;;
28353;SDS011;15603;50.878;8.036;2024-01-16T03:04:11;17.50;;;5.25;;
28353;SDS011;15603;50.878;8.036;2024-01-16T03:06:38;18.60;;;6.22;;
28353;SDS011;15603;50.878;8.036;2024-01-16T03:09:06;13.80;;;5.70;;
28353;SDS011;15603;50.878;8.036;2024-01-16T03:11:33;14.20;;;5.90;;
28353;SDS011;15603;50.878;8.036;2024-01-16T03:14:01;20.42;;;6.22;;
28353;SDS011;15603;50.878;8.036;2024-01-16T03:16:28;15.90;;;5.88;;
28353;SDS011;15603;50.878;8.036;2024-01-16T03:18:55;17.75;;;5.95;;
28353;SDS011;15603;50.878;8.036;2024-01-16T03:21:22;17.17;;;6.55;;
28353;SDS011;15603;50.878;8.036;2024-01-16T03:23:50;10.52;;;6.20;;
28353;SDS011;15603;50.878;8.036;2024-01-16T03:26:17;15.38;;;6.35;;
28353;SDS011;15603;50.878;8.036;2024-01-16T03:28:45;21.67;;;7.25;;
28353;SDS011;15603;50.878;8.036;2024-01-16T03:31:15;16.55;;;5.45;;
28353;SDS011;15603;50.878;8.036;2024-01-16T03:33:42;21.20;;;5.93;;
28353;SDS011;15603;50.878;8.036;2024-01-16T03:36:10;21.58;;;6.07;;
28353;SDS011;15603;50.878;8.036;2024-01-16T03:38:39;24.08;;;6.85;;
28353;SDS011;15603;50.878;8.036;2024-01-16T03:41:07;22.38;;;6.28;;
28353;SDS011;15603;50.878;8.036;2024-01-16T03:43:35;10.32;;;6.15;;
28353;SDS011;15603;50.878;8.036;2024-01-16T03:46:02;11.68;;;6.70;;
28353;SDS011;15603;50.878;8.036;2024-01-16T03:48:30;15.75;;;6.22;;
28353;SDS011;15603;50.878;8.036;2024-01-16T03:50:57;27.77;;;6.97;;
28353;SDS011;15603;50.878;8.036;2024-01-16T03:53:24;11.23;;;6.28;;
28353;SDS011;15603;50.878;8.036;2024-01-16T03:55:51;9.55;;;5.40;;
28353;SDS011;15603;50.878;8.036;2024-01-16T03:58:19;13.15;;;5.45;;
28353;SDS011;15603;50.878;8.036;2024-01-16T04:00:46;13.85;;;5.70;;
28353;SDS011;15603;50.878;8.036;2024-01-16T04:03:14;18.55;;;6.80;;
28353;SDS011;15603;50.878;8.036;2024-01-16T04:05:41;18.67;;;6.45;;
28353;SDS011;15603;50.878;8.036;2024-01-16T04:08:08;14.10;;;5.78;;
28353;SDS011;15603;50.878;8.036;2024-01-16T04:10:35;17.30;;;6.43;;
28353;SDS011;15603;50.878;8.036;2024-01-16T04:13:03;12.85;;;5.95;;
28353;SDS011;15603;50.878;8.036;2024-01-16T04:15:30;15.15;;;6.28;;
28353;SDS011;15603;50.878;8.036;2024-01-16T04:17:58;17.60;;;6.30;;
28353;SDS011;15603;50.878;8.036;2024-01-16T04:20:25;17.75;;;6.60;;
28353;SDS011;15603;50.878;8.036;2024-01-16T04:22:53;14.07;;;6.38;;
28353;SDS011;15603;50.878;8.036;2024-01-16T04:25:20;14.50;;;6.20;;
28353;SDS011;15603;50.878;8.036;2024-01-16T04:27:47;18.90;;;6.35;;
28353;SDS011;15603;50.878;8.036;2024-01-16T04:30:14;14.55;;;6.50;;
28353;SDS011;15603;50.878;8.036;2024-01-16T04:32:41;15.13;;;6.80;;
28353;SDS011;15603;50.878;8.036;2024-01-16T04:35:09;14.02;;;7.20;;
28353;SDS011;15603;50.878;8.036;2024-01-16T04:37:36;11.63;;;6.03;;
28353;SDS011;15603;50.878;8.036;2024-01-16T04:40:04;19.52;;;7.40;;
28353;SDS011;15603;50.878;8.036;2024-01-16T04:42:32;13.35;;;7.15;;
28353;SDS011;15603;50.878;8.036;2024-01-16T04:45:00;24.27;;;8.40;;
28353;SDS011;15603;50.878;8.036;2024-01-16T04:47:28;19.55;;;7.40;;
28353;SDS011;15603;50.878;8.036;2024-01-16T04:49:55;16.23;;;7.45;;
28353;SDS011;15603;50.878;8.036;2024-01-16T04:52:23;17.95;;;7.63;;
28353;SDS011;15603;50.878;8.036;2024-01-16T04:54:50;13.57;;;8.13;;
28353;SDS011;15603;50.878;8.036;2024-01-16T04:57:17;20.25;;;8.88;;
28353;SDS011;15603;50.878;8.036;2024-01-16T04:59:44;18.40;;;9.00;;
28353;SDS011;15603;50.878;8.036;2024-01-16T05:02:11;19.60;;;8.82;;
28353;SDS011;15603;50.878;8.036;2024-01-16T05:04:39;13.70;;;7.53;;
28353;SDS011;15603;50.878;8.036;2024-01-16T05:07:06;22.05;;;9.43;;
28353;SDS011;15603;50.878;8.036;2024-01-16T05:09:33;21.27;;;7.90;;
28353;SDS011;15603;50.878;8.036;2024-01-16T05:12:01;16.13;;;8.52;;
28353;SDS011;15603;50.878;8.036;2024-01-16T05:14:29;22.35;;;9.68;;
28353;SDS011;15603;50.878;8.036;2024-01-16T05:16:56;16.35;;;7.85;;
28353;SDS011;15603;50.878;8.036;2024-01-16T05:19:23;18.83;;;8.38;;
28353;SDS011;15603;50.878;8.036;2024-01-16T05:21:50;20.17;;;9.32;;
28353;SDS011;15603;50.878;8.036;2024-01-16T05:24:17;19.08;;;8.80;;
28353;SDS011;15603;50.878;8.036;2024-01-16T05:26:44;20.77;;;8.23;;
28353;SDS011;15603;50.878;8.036;2024-01-16T05:29:11;24.38;;;8.35;;
28353;SDS011;15603;50.878;8.036;2024-01-16T05:31:39;21.02;;;8.32;;
28353;SDS011;15603;50.878;8.036;2024-01-16T05:34:10;14.60;;;8.70;;
28353;SDS011;15603;50.878;8.036;2024-01-16T05:36:37;20.67;;;7.55;;
28353;SDS011;15603;50.878;8.036;2024-01-16T05:39:04;25.13;;;9.50;;
28353;SDS011;15603;50.878;8.036;2024-01-16T05:41:32;18.52;;;8.93;;
28353;SDS011;15603;50.878;8.036;2024-01-16T05:44:00;21.42;;;9.10;;
28353;SDS011;15603;50.878;8.036;2024-01-16T05:46:31;21.27;;;9.23;;
28353;SDS011;15603;50.878;8.036;2024-01-16T05:48:59;20.42;;;8.13;;
28353;SDS011;15603;50.878;8.036;2024-01-16T05:51:27;21.77;;;8.10;;
28353;SDS011;15603;50.878;8.036;2024-01-16T05:53:55;16.75;;;8.55;;
28353;SDS011;15603;50.878;8.036;2024-01-16T05:56:23;21.73;;;8.27;;
28353;SDS011;15603;50.878;8.036;2024-01-16T05:58:50;23.70;;;9.02;;
28353;SDS011;15603;50.878;8.036;2024-01-16T06:01:18;17.00;;;8.90;;
28353;SDS011;15603;50.878;8.036;2024-01-16T06:03:45;16.23;;;9.57;;
28353;SDS011;15603;50.878;8.036;2024-01-16T06:06:15;19.27;;;8.82;;
28353;SDS011;15603;50.878;8.036;2024-01-16T06:08:43;20.10;;;9.32;;
28353;SDS011;15603;50.878;8.036;2024-01-16T06:11:10;22.98;;;9.23;;
28353;SDS011;15603;50.878;8.036;2024-01-16T06:13:40;22.55;;;9.43;;
28353;SDS011;15603;50.878;8.036;2024-01-16T06:16:07;27.80;;;9.60;;
28353;SDS011;15603;50.878;8.036;2024-01-16T06:18:35;15.48;;;8.32;;
28353;SDS011;15603;50.878;8.036;2024-01-16T06:21:03;17.27;;;8.90;;
28353;SDS011;15603;50.878;8.036;2024-01-16T06:23:30;23.10;;;9.77;;
28353;SDS011;15603;50.878;8.036;2024-01-16T06:25:58;19.00;;;9.65;;
28353;SDS011;15603;50.878;8.036;2024-01-16T06:28:27;23.15;;;8.63;;
28353;SDS011;15603;50.878;8.036;2024-01-16T06:30:54;25.95;;;9.80;;
28353;SDS011;15603;50.878;8.036;2024-01-16T06:33:21;20.60;;;10.00;;
28353;SDS011;15603;50.878;8.036;2024-01-16T06:35:49;22.98;;;9.95;;
28353;SDS011;15603;50.878;8.036;2024-01-16T06:38:20;21.45;;;8.82;;
28353;SDS011;15603;50.878;8.036;2024-01-16T06:40:47;24.20;;;9.63;;
28353;SDS011;15603;50.878;8.036;2024-01-16T06:43:14;18.17;;;9.38;;
28353;SDS011;15603;50.878;8.036;2024-01-16T06:45:42;17.10;;;9.02;;
28353;SDS011;15603;50.878;8.036;2024-01-16T06:48:10;22.85;;;8.77;;
28353;SDS011;15603;50.878;8.036;2024-01-16T06:50:37;21.88;;;10.15;;
28353;SDS011;15603;50.878;8.036;2024-01-16T06:53:05;26.52;;;9.85;;
28353;SDS011;15603;50.878;8.036;2024-01-16T06:55:32;15.35;;;9.00;;
28353;SDS011;15603;50.878;8.036;2024-01-16T06:57:59;15.63;;;7.95;;
28353;SDS011;15603;50.878;8.036;2024-01-16T07:00:26;23.75;;;8.05;;
28353;SDS011;15603;50.878;8.036;2024-01-16T07:02:54;19.80;;;8.88;;
28353;SDS011;15603;50.878;8.036;2024-01-16T07:05:21;23.40;;;9.52;;
28353;SDS011;15603;50.878;8.036;2024-01-16T07:07:49;21.60;;;9.95;;
28353;SDS011;15603;50.878;8.036;2024-01-16T07:10:16;22.75;;;9.68;;
28353;SDS011;15603;50.878;8.036;2024-01-16T07:15:16;22.60;;;8.93;;
28353;SDS011;15603;50.878;8.036;2024-01-16T07:17:43;17.10;;;9.02;;
28353;SDS011;15603;50.878;8.036;2024-01-16T07:20:11;20.13;;;9.00;;
28353;SDS011;15603;50.878;8.036;2024-01-16T07:22:38;16.90;;;9.43;;
28353;SDS011;15603;50.878;8.036;2024-01-16T07:25:08;16.58;;;7.43;;
28353;SDS011;15603;50.878;8.036;2024-01-16T07:27:36;14.88;;;7.90;;
28353;SDS011;15603;50.878;8.036;2024-01-16T07:30:06;17.98;;;7.65;;
28353;SDS011;15603;50.878;8.036;2024-01-16T07:32:34;16.35;;;5.55;;
28353;SDS011;15603;50.878;8.036;2024-01-16T07:35:02;14.63;;;5.80;;
28353;SDS011;15603;50.878;8.036;2024-01-16T07:37:30;11.10;;;6.45;;
28353;SDS011;15603;50.878;8.036;2024-01-16T07:39:57;21.15;;;6.15;;
28353;SDS011;15603;50.878;8.036;2024-01-16T07:42:24;17.83;;;8.35;;
28353;SDS011;15603;50.878;8.036;2024-01-16T07:44:52;13.02;;;6.75;;
28353;SDS011;15603;50.878;8.036;2024-01-16T07:47:19;20.00;;;6.47;;
28353;SDS011;15603;50.878;8.036;2024-01-16T07:49:47;11.57;;;5.55;;
28353;SDS011;15603;50.878;8.036;2024-01-16T07:52:14;11.48;;;5.63;;
28353;SDS011;15603;50.878;8.036;2024-01-16T07:54:41;14.82;;;6.28;;
28353;SDS011;15603;50.878;8.036;2024-01-16T07:57:08;15.07;;;5.53;;
28353;SDS011;15603;50.878;8.036;2024-01-16T07:59:35;13.93;;;6.28;;
28353;SDS011;15603;50.878;8.036;2024-01-16T08:02:02;16.90;;;5.70;;
28353;SDS011;15603;50.878;8.036;2024-01-16T08:04:29;12.55;;;6.25;;
28353;SDS011;15603;50.878;8.036;2024-01-16T08:06:56;15.05;;;6.65;;
28353;SDS011;15603;50.878;8.036;2024-01-16T08:09:24;24.83;;;5.95;;
28353;SDS011;15603;50.878;8.036;2024-01-16T08:11:52;14.80;;;6.10;;
28353;SDS011;15603;50.878;8.036;2024-01-16T08:14:19;19.65;;;8.05;;
28353;SDS011;15603;50.878;8.036;2024-01-16T08:16:46;19.52;;;6.75;;
28353;SDS011;15603;50.878;8.036;2024-01-16T08:19:13;21.98;;;7.25;;
28353;SDS011;15603;50.878;8.036;2024-01-16T08:21:41;15.05;;;6.22;;
28353;SDS011;15603;50.878;8.036;2024-01-16T08:24:08;19.75;;;6.63;;
28353;SDS011;15603;50.878;8.036;2024-01-16T08:26:35;19.05;;;6.07;;
28353;SDS011;15603;50.878;8.036;2024-01-16T08:29:02;17.38;;;6.35;;
28353;SDS011;15603;50.878;8.036;2024-01-16T08:31:29;25.27;;;6.88;;
28353;SDS011;15603;50.878;8.036;2024-01-16T08:33:56;21.80;;;7.40;;
28353;SDS011;15603;50.878;8.036;2024-01-16T08:36:24;30.42;;;6.10;;
28353;SDS011;15603;50.878;8.036;2024-01-16T08:38:52;19.40;;;6.90;;
28353;SDS011;15603;50.878;8.036;2024-01-16T08:41:19;18.60;;;6.40;;
28353;SDS011;15603;50.878;8.036;2024-01-16T08:43:47;15.63;;;5.15;;
28353;SDS011;15603;50.878;8.036;2024-01-16T08:46:14;24.40;;;5.60;;
28353;SDS011;15603;50.878;8.036;2024-01-16T08:48:42;26.70;;;5.70;;
28353;SDS011;15603;50.878;8.036;2024-01-16T08:51:10;14.18;;;4.80;;
28353;SDS011;15603;50.878;8.036;2024-01-16T08:53:41;14.55;;;6.50;;
28353;SDS011;15603;50.878;8.036;2024-01-16T08:56:09;23.33;;;4.43;;
28353;SDS011;15603;50.878;8.036;2024-01-16T08:58:36;17.23;;;5.47;;
28353;SDS011;15603;50.878;8.036;2024-01-16T09:01:05;13.88;;;4.40;;
28353;SDS011;15603;50.878;8.036;2024-01-16T09:03:33;25.05;;;5.43;;
28353;SDS011;15603;50.878;8.036;2024-01-16T09:06:01;15.00;;;4.93;;
28353;SDS011;15603;50.878;8.036;2024-01-16T09:08:30;10.93;;;3.60;;
28353;SDS011;15603;50.878;8.036;2024-01-16T09:10:57;13.18;;;3.55;;
28353;SDS011;15603;50.878;8.036;2024-01-16T09:13:24;20.13;;;4.18;;
28353;SDS011;15603;50.878;8.036;2024-01-16T09:15:51;8.98;;;3.40;;
28353;SDS011;15603;50.878;8.036;2024-01-16T09:18:18;14.35;;;3.78;;
28353;SDS011;15603;50.878;8.036;2024-01-16T09:20:46;18.77;;;4.43;;
28353;SDS011;15603;50.878;8.036;2024-01-16T09:23:14;16.85;;;3.88;;
28353;SDS011;15603;50.878;8.036;2024-01-16T09:25:41;10.55;;;3.30;;
28353;SDS011;15603;50.878;8.036;2024-01-16T09:28:11;17.52;;;3.67;;
28353;SDS011;15603;50.878;8.036;2024-01-16T09:30:39;11.32;;;3.25;;
28353;SDS011;15603;50.878;8.036;2024-01-16T09:33:06;9.88;;;3.40;;
28353;SDS011;15603;50.878;8.036;2024-01-16T09:35:34;16.58;;;3.75;;
28353;SDS011;15603;50.878;8.036;2024-01-16T09:38:01;9.07;;;3.83;;
28353;SDS011;15603;50.878;8.036;2024-01-16T09:40:29;7.85;;;2.72;;
28353;SDS011;15603;50.878;8.036;2024-01-16T09:42:56;12.02;;;3.35;;
28353;SDS011;15603;50.878;8.036;2024-01-16T09:45:24;9.77;;;3.08;;
28353;SDS011;15603;50.878;8.036;2024-01-16T09:47:52;9.75;;;2.47;;
28353;SDS011;15603;50.878;8.036;2024-01-16T09:50:20;6.50;;;2.65;;
28353;SDS011;15603;50.878;8.036;2024-01-16T09:52:48;17.17;;;2.50;;
28353;SDS011;15603;50.878;8.036;2024-01-16T09:55:16;9.85;;;2.78;;
28353;SDS011;15603;50.878;8.036;2024-01-16T09:57:45;8.75;;;2.38;;
28353;SDS011;15603;50.878;8.036;2024-01-16T10:00:13;13.15;;;2.20;;
28353;SDS011;15603;50.878;8.036;2024-01-16T10:02:42;8.93;;;2.33;;
28353;SDS011;15603;50.878;8.036;2024-01-16T10:05:10;14.52;;;2.78;;
28353;SDS011;15603;50.878;8.036;2024-01-16T10:07:39;6.65;;;1.90;;
28353;SDS011;15603;50.878;8.036;2024-01-16T10:10:07;7.95;;;2.58;;
28353;SDS011;15603;50.878;8.036;2024-01-16T10:12:50;13.63;;;2.42;;
28353;SDS011;15603;50.878;8.036;2024-01-16T10:15:18;18.27;;;2.78;;
28353;SDS011;15603;50.878;8.036;2024-01-16T10:17:47;12.25;;;1.80;;
28353;SDS011;15603;50.878;8.036;2024-01-16T10:20:14;8.95;;;1.95;;
28353;SDS011;15603;50.878;8.036;2024-01-16T10:22:53;11.45;;;1.75;;
28353;SDS011;15603;50.878;8.036;2024-01-16T10:25:21;10.15;;;1.92;;
28353;SDS011;15603;50.878;8.036;2024-01-16T10:27:49;10.80;;;1.83;;
28353;SDS011;15603;50.878;8.036;2024-01-16T10:30:30;10.32;;;1.95;;
28353;SDS011;15603;50.878;8.036;2024-01-16T10:33:00;10.20;;;1.73;;
28353;SDS011;15603;50.878;8.036;2024-01-16T10:35:40;14.75;;;2.20;;
28353;SDS011;15603;50.878;8.036;2024-01-16T10:38:07;9.07;;;2.20;;
28353;SDS011;15603;50.878;8.036;2024-01-16T10:40:34;4.38;;;1.50;;
28353;SDS011;15603;50.878;8.036;2024-01-16T10:43:04;12.30;;;2.30;;
28353;SDS011;15603;50.878;8.036;2024-01-16T10:45:32;11.82;;;1.92;;
28353;SDS011;15603;50.878;8.036;2024-01-16T10:48:03;12.65;;;2.25;;
28353;SDS011;15603;50.878;8.036;2024-01-16T10:53:05;9.70;;;2.10;;
28353;SDS011;15603;50.878;8.036;2024-01-16T10:55:38;11.20;;;2.22;;
28353;SDS011;15603;50.878;8.036;2024-01-16T10:58:14;10.75;;;1.58;;
28353;SDS011;15603;50.878;8.036;2024-01-16T11:00:43;9.63;;;1.58;;
28353;SDS011;15603;50.878;8.036;2024-01-16T11:03:19;13.18;;;1.98;;
28353;SDS011;15603;50.878;8.036;2024-01-16T11:05:54;5.28;;;1.08;;
28353;SDS011;15603;50.878;8.036;2024-01-16T11:08:25;6.97;;;1.85;;
28353;SDS011;15603;50.878;8.036;2024-01-16T11:10:58;5.30;;;1.40;;
28353;SDS011;15603;50.878;8.036;2024-01-16T11:13:28;13.02;;;1.65;;
28353;SDS011;15603;50.878;8.036;2024-01-16T11:16:02;6.10;;;1.48;;
28353;SDS011;15603;50.878;8.036;2024-01-16T11:18:31;10.32;;;1.48;;
28353;SDS011;15603;50.878;8.036;2024-01-16T11:21:02;10.97;;;1.80;;
28353;SDS011;15603;50.878;8.036;2024-01-16T11:23:37;10.98;;;1.20;;
28353;SDS011;15603;50.878;8.036;2024-01-16T11:26:24;14.10;;;1.75;;
28353;SDS011;15603;50.878;8.036;2024-01-16T11:31:55;7.95;;;1.65;;
28353;SDS011;15603;50.878;8.036;2024-01-16T11:37:11;12.18;;;1.45;;
28353;SDS011;15603;50.878;8.036;2024-01-16T11:39:39;7.15;;;1.48;;
28353;SDS011;15603;50.878;8.036;2024-01-16T11:42:07;5.93;;;1.52;;
28353;SDS011;15603;50.878;8.036;2024-01-16T11:44:47;4.20;;;1.10;;
28353;SDS011;15603;50.878;8.036;2024-01-16T11:47:21;2.70;;;0.90;;
28353;SDS011;15603;50.878;8.036;2024-01-16T11:49:51;5.53;;;1.25;;
28353;SDS011;15603;50.878;8.036;2024-01-16T11:52:44;12.15;;;1.67;;
28353;SDS011;15603;50.878;8.036;2024-01-16T12:00:39;6.65;;;1.50;;
28353;SDS011;15603;50.878;8.036;2024-01-16T12:03:08;17.10;;;1.90;;
28353;SDS011;15603;50.878;8.036;2024-01-16T12:05:37;7.88;;;1.17;;
28353;SDS011;15603;50.878;8.036;2024-01-16T12:08:05;14.48;;;1.13;;
28353;SDS011;15603;50.878;8.036;2024-01-16T12:10:35;10.27;;;1.35;;
28353;SDS011;15603;50.878;8.036;2024-01-16T12:13:13;4.55;;;1.00;;
28353;SDS011;15603;50.878;8.036;2024-01-16T12:15:40;15.88;;;1.25;;
28353;SDS011;15603;50.878;8.036;2024-01-16T12:18:08;5.40;;;1.70;;
28353;SDS011;15603;50.878;8.036;2024-01-16T12:20:53;6.22;;;1.30;;
28353;SDS011;15603;50.878;8.036;2024-01-16T12:23:20;8.75;;;1.40;;
28353;SDS011;15603;50.878;8.036;2024-01-16T12:25:52;12.50;;;2.20;;
28353;SDS011;15603;50.878;8.036;2024-01-16T12:28:30;4.57;;;0.90;;
28353;SDS011;15603;50.878;8.036;2024-01-16T12:31:00;8.65;;;1.20;;
28353;SDS011;15603;50.878;8.036;2024-01-16T12:33:28;4.68;;;1.45;;
28353;SDS011;15603;50.878;8.036;2024-01-16T12:36:05;10.23;;;1.20;;
28353;SDS011;15603;50.878;8.036;2024-01-16T12:38:33;7.10;;;1.42;;
28353;SDS011;15603;50.878;8.036;2024-01-16T12:41:00;3.92;;;1.17;;
28353;SDS011;15603;50.878;8.036;2024-01-16T12:43:30;5.80;;;1.25;;
28353;SDS011;15603;50.878;8.036;2024-01-16T12:45:58;16.13;;;1.73;;
28353;SDS011;15603;50.878;8.036;2024-01-16T12:48:26;9.95;;;1.17;;
28353;SDS011;15603;50.878;8.036;2024-01-16T12:51:03;16.50;;;1.52;;
28353;SDS011;15603;50.878;8.036;2024-01-16T12:53:32;6.38;;;0.93;;
28353;SDS011;15603;50.878;8.036;2024-01-16T12:56:01;5.25;;;1.00;;
28353;SDS011;15603;50.878;8.036;2024-01-16T12:58:33;3.80;;;0.85;;
28353;SDS011;15603;50.878;8.036;2024-01-16T13:01:21;7.50;;;1.38;;
28353;SDS011;15603;50.878;8.036;2024-01-16T13:04:04;6.60;;;1.27;;
28353;SDS011;15603;50.878;8.036;2024-01-16T13:06:32;8.70;;;1.00;;
28353;SDS011;15603;50.878;8.036;2024-01-16T13:09:11;7.63;;;1.10;;
28353;SDS011;15603;50.878;8.036;2024-01-16T13:11:46;9.75;;;0.93;;
28353;SDS011;15603;50.878;8.036;2024-01-16T13:14:14;9.27;;;1.00;;
28353;SDS011;15603;50.878;8.036;2024-01-16T13:16:41;7.65;;;1.42;;
28353;SDS011;15603;50.878;8.036;2024-01-16T13:19:08;4.30;;;1.58;;
28353;SDS011;15603;50.878;8.036;2024-01-16T13:21:37;7.45;;;1.08;;
28353;SDS011;15603;50.878;8.036;2024-01-16T13:24:05;8.02;;;1.55;;
28353;SDS011;15603;50.878;8.036;2024-01-16T13:26:33;5.13;;;1.38;;
28353;SDS011;15603;50.878;8.036;2024-01-16T13:29:00;16.33;;;1.30;;
28353;SDS011;15603;50.878;8.036;2024-01-16T13:31:27;8.32;;;1.40;;
28353;SDS011;15603;50.878;8.036;2024-01-16T13:33:54;12.18;;;1.75;;
28353;SDS011;15603;50.878;8.036;2024-01-16T13:36:23;5.45;;;1.27;;
28353;SDS011;15603;50.878;8.036;2024-01-16T13:39:10;7.25;;;1.55;;
28353;SDS011;15603;50.878;8.036;2024-01-16T13:41:40;10.60;;;2.33;;
28353;SDS011;15603;50.878;8.036;2024-01-16T13:44:09;15.30;;;1.58;;
28353;SDS011;15603;50.878;8.036;2024-01-16T13:46:36;10.43;;;1.23;;
28353;SDS011;15603;50.878;8.036;2024-01-16T13:49:07;12.55;;;1.88;;
28353;SDS011;15603;50.878;8.036;2024-01-16T13:51:34;6.93;;;1.10;;
28353;SDS011;15603;50.878;8.036;2024-01-16T13:54:02;6.22;;;1.27;;
28353;SDS011;15603;50.878;8.036;2024-01-16T13:56:30;6.00;;;1.05;;
28353;SDS011;15603;50.878;8.036;2024-01-16T13:59:17;11.52;;;1.27;;
28353;SDS011;15603;50.878;8.036;2024-01-16T14:01:45;8.38;;;1.48;;
28353;SDS011;15603;50.878;8.036;2024-01-16T14:04:12;6.93;;;1.45;;
28353;SDS011;15603;50.878;8.036;2024-01-16T14:06:39;7.47;;;1.25;;
28353;SDS011;15603;50.878;8.036;2024-01-16T14:09:26;6.90;;;1.20;;
28353;SDS011;15603;50.878;8.036;2024-01-16T14:11:54;15.65;;;1.65;;
28353;SDS011;15603;50.878;8.036;2024-01-16T14:14:21;5.55;;;1.00;;
28353;SDS011;15603;50.878;8.036;2024-01-16T14:16:48;13.68;;;1.13;;
28353;SDS011;15603;50.878;8.036;2024-01-16T14:19:26;7.95;;;1.48;;
28353;SDS011;15603;50.878;8.036;2024-01-16T14:21:54;4.13;;;0.85;;
28353;SDS011;15603;50.878;8.036;2024-01-16T14:24:22;14.15;;;1.38;;
28353;SDS011;15603;50.878;8.036;2024-01-16T14:26:49;11.15;;;1.55;;
28353;SDS011;15603;50.878;8.036;2024-01-16T14:29:16;12.05;;;1.20;;
28353;SDS011;15603;50.878;8.036;2024-01-16T14:31:43;1.98;;;0.95;;
28353;SDS011;15603;50.878;8.036;2024-01-16T14:34:11;13.38;;;1.35;;
28353;SDS011;15603;50.878;8.036;2024-01-16T14:36:40;4.28;;;1.60;;
28353;SDS011;15603;50.878;8.036;2024-01-16T14:39:08;7.50;;;1.27;;
28353;SDS011;15603;50.878;8.036;2024-01-16T14:41:40;9.45;;;1.55;;
28353;SDS011;15603;50.878;8.036;2024-01-16T14:44:09;11.40;;;1.60;;
28353;SDS011;15603;50.878;8.036;2024-01-16T14:46:36;6.13;;;1.80;;
28353;SDS011;15603;50.878;8.036;2024-01-16T14:49:03;8.25;;;1.40;;
28353;SDS011;15603;50.878;8.036;2024-01-16T14:51:31;12.65;;;1.75;;
28353;SDS011;15603;50.878;8.036;2024-01-16T14:53:59;12.00;;;1.85;;
28353;SDS011;15603;50.878;8.036;2024-01-16T14:56:29;12.90;;;1.88;;
28353;SDS011;15603;50.878;8.036;2024-01-16T14:58:57;11.65;;;1.73;;
28353;SDS011;15603;50.878;8.036;2024-01-16T15:01:24;5.68;;;1.50;;
28353;SDS011;15603;50.878;8.036;2024-01-16T15:03:52;15.57;;;1.60;;